sensor_id;sensor_type;location;lat;lon;timestamp;P1;durP1;ratioP1;P2;durP2;ratioP2
50821;SDS011;36794;51.212;6.980;2022-09-01T00:04:01;3.22;;;1.20;;
50821;SDS011;36794;51.212;6.980;2022-09-01T00:06:29;2.25;;;1.00;;
50821;SDS011;36794;51.212;6.980;2022-09-01T00:08:57;1.38;;;0.88;;
50821;SDS011;36794;51.212;6.980;2022-09-01T00:11:24;3.97;;;1.27;;
50821;SDS011;36794;51.212;6.980;2022-09-01T00:13:50;2.40;;;1.25;;
50821;SDS011;36794;51.212;6.980;2022-09-01T00:16:17;2.13;;;1.20;;
50821;SDS011;36794;51.212;6.980;2022-09-01T00:18:44;3.95;;;1.20;;
50821;SDS011;36794;51.212;6.980;2022-09-01T00:21:10;2.22;;;1.10;;
50821;SDS011;36794;51.212;6.980;2022-09-01T00:23:37;4.18;;;1.10;;
50821;SDS011;36794;51.212;6.980;2022-09-01T00:26:03;6.45;;;1.17;;
50821;SDS011;36794;51.212;6.980;2022-09-01T00:28:31;2.08;;;1.10;;
50821;SDS011;36794;51.212;6.980;2022-09-01T00:30:57;5.63;;;1.38;;
50821;SDS011;36794;51.212;6.980;2022-09-01T00:33:23;3.67;;;1.00;;
50821;SDS011;36794;51.212;6.980;2022-09-01T00:35:49;3.78;;;1.17;;
50821;SDS011;36794;51.212;6.980;2022-09-01T00:38:15;4.93;;;1.17;;
50821;SDS011;36794;51.212;6.980;2022-09-01T00:40:41;3.53;;;1.52;;
50821;SDS011;36794;51.212;6.980;2022-09-01T00:43:16;3.53;;;1.13;;
50821;SDS011;36794;51.212;6.980;2022-09-01T00:45:43;3.58;;;1.27;;
50821;SDS011;36794;51.212;6.980;2022-09-01T00:48:09;3.60;;;1.30;;
50821;SDS011;36794;51.212;6.980;2022-09-01T00:50:35;9.40;;;1.42;;
50821;SDS011;36794;51.212;6.980;2022-09-01T00:53:02;5.00;;;1.13;;
50821;SDS011;36794;51.212;6.980;2022-09-01T00:55:30;3.38;;;1.20;;
50821;SDS011;36794;51.212;6.980;2022-09-01T00:57:57;3.88;;;1.27;;
50821;SDS011;36794;51.212;6.980;2022-09-01T01:00:26;1.92;;;1.10;;
50821;SDS011;36794;51.212;6.980;2022-09-01T01:02:52;6.32;;;1.25;;
50821;SDS011;36794;51.212;6.980;2022-09-01T01:05:28;4.57;;;1.25;;
50821;SDS011;36794;51.212;6.980;2022-09-01T01:07:56;1.98;;;1.10;;
50821;SDS011;36794;51.212;6.980;2022-09-01T01:10:23;5.05;;;1.08;;
50821;SDS011;36794;51.212;6.980;2022-09-01T01:12:50;3.17;;;1.20;;
50821;SDS011;36794;51.212;6.980;2022-09-01T01:15:17;1.90;;;1.20;;
50821;SDS011;36794;51.212;6.980;2022-09-01T01:17:43;4.80;;;1.13;;
50821;SDS011;36794;51.212;6.980;2022-09-01T01:20:10;2.15;;;1.10;;
50821;SDS011;36794;51.212;6.980;2022-09-01T01:22:59;2.72;;;1.35;;
50821;SDS011;36794;51.212;6.980;2022-09-01T01:28:09;2.88;;;1.13;;
50821;SDS011;36794;51.212;6.980;2022-09-01T01:30:36;3.55;;;1.15;;
50821;SDS011;36794;51.212;6.980;2022-09-01T01:33:03;2.20;;;1.20;;
50821;SDS011;36794;51.212;6.980;2022-09-01T01:35:30;2.72;;;1.45;;
50821;SDS011;36794;51.212;6.980;2022-09-01T01:37:58;4.03;;;1.27;;
50821;SDS011;36794;51.212;6.980;2022-09-01T01:40:26;2.40;;;1.10;;
50821;SDS011;36794;51.212;6.980;2022-09-01T01:42:53;1.73;;;1.30;;
50821;SDS011;36794;51.212;6.980;2022-09-01T01:45:21;3.40;;;1.20;;
50821;SDS011;36794;51.212;6.980;2022-09-01T01:47:48;2.60;;;0.90;;
50821;SDS011;36794;51.212;6.980;2022-09-01T01:50:17;1.92;;;1.15;;
50821;SDS011;36794;51.212;6.980;2022-09-01T01:52:43;6.50;;;1.20;;
50821;SDS011;36794;51.212;6.980;2022-09-01T01:55:09;4.22;;;1.40;;
50821;SDS011;36794;51.212;6.980;2022-09-01T01:57:37;4.13;;;1.33;;
50821;SDS011;36794;51.212;6.980;2022-09-01T02:00:04;1.92;;;1.02;;
50821;SDS011;36794;51.212;6.980;2022-09-01T02:02:30;6.15;;;1.25;;
50821;SDS011;36794;51.212;6.980;2022-09-01T02:04:56;2.28;;;1.20;;
50821;SDS011;36794;51.212;6.980;2022-09-01T02:07:23;3.33;;;1.20;;
50821;SDS011;36794;51.212;6.980;2022-09-01T02:09:49;5.75;;;1.10;;
50821;SDS011;36794;51.212;6.980;2022-09-01T02:12:14;4.35;;;1.20;;
50821;SDS011;36794;51.212;6.980;2022-09-01T02:14:43;3.60;;;1.08;;
50821;SDS011;36794;51.212;6.980;2022-09-01T02:17:09;4.40;;;1.15;;
50821;SDS011;36794;51.212;6.980;2022-09-01T02:19:35;6.28;;;0.98;;
50821;SDS011;36794;51.212;6.980;2022-09-01T02:22:04;2.90;;;1.20;;
50821;SDS011;36794;51.212;6.980;2022-09-01T02:24:30;3.05;;;1.25;;
50821;SDS011;36794;51.212;6.980;2022-09-01T02:26:56;3.53;;;1.30;;
50821;SDS011;36794;51.212;6.980;2022-09-01T02:29:24;4.47;;;1.17;;
50821;SDS011;36794;51.212;6.980;2022-09-01T02:31:53;2.05;;;1.20;;
50821;SDS011;36794;51.212;6.980;2022-09-01T02:34:19;2.83;;;0.95;;
50821;SDS011;36794;51.212;6.980;2022-09-01T02:36:48;2.58;;;1.10;;
50821;SDS011;36794;51.212;6.980;2022-09-01T02:39:19;4.10;;;1.20;;
50821;SDS011;36794;51.212;6.980;2022-09-01T02:41:47;2.03;;;1.00;;
50821;SDS011;36794;51.212;6.980;2022-09-01T02:44:13;3.90;;;1.58;;
50821;SDS011;36794;51.212;6.980;2022-09-01T02:46:40;2.28;;;1.13;;
50821;SDS011;36794;51.212;6.980;2022-09-01T02:49:08;4.90;;;1.27;;
50821;SDS011;36794;51.212;6.980;2022-09-01T02:51:39;1.98;;;1.20;;
50821;SDS011;36794;51.212;6.980;2022-09-01T02:54:05;5.68;;;1.27;;
50821;SDS011;36794;51.212;6.980;2022-09-01T02:56:31;6.68;;;1.33;;
50821;SDS011;36794;51.212;6.980;2022-09-01T02:58:57;3.22;;;1.17;;
50821;SDS011;36794;51.212;6.980;2022-09-01T03:01:29;2.50;;;1.33;;
50821;SDS011;36794;51.212;6.980;2022-09-01T03:03:57;1.90;;;1.10;;
50821;SDS011;36794;51.212;6.980;2022-09-01T03:06:23;1.85;;;1.10;;
50821;SDS011;36794;51.212;6.980;2022-09-01T03:08:54;4.35;;;1.50;;
50821;SDS011;36794;51.212;6.980;2022-09-01T03:11:20;1.73;;;1.20;;
50821;SDS011;36794;51.212;6.980;2022-09-01T03:13:48;5.65;;;1.30;;
50821;SDS011;36794;51.212;6.980;2022-09-01T03:16:14;4.47;;;1.10;;
50821;SDS011;36794;51.212;6.980;2022-09-01T03:18:40;9.57;;;1.35;;
50821;SDS011;36794;51.212;6.980;2022-09-01T03:21:07;2.85;;;1.27;;
50821;SDS011;36794;51.212;6.980;2022-09-01T03:23:33;2.20;;;1.30;;
50821;SDS011;36794;51.212;6.980;2022-09-01T03:26:00;4.75;;;1.20;;
50821;SDS011;36794;51.212;6.980;2022-09-01T03:28:26;3.75;;;1.08;;
50821;SDS011;36794;51.212;6.980;2022-09-01T03:30:53;3.40;;;1.30;;
50821;SDS011;36794;51.212;6.980;2022-09-01T03:33:20;5.40;;;1.70;;
50821;SDS011;36794;51.212;6.980;2022-09-01T03:35:46;3.47;;;1.20;;
50821;SDS011;36794;51.212;6.980;2022-09-01T03:38:13;6.32;;;2.58;;
50821;SDS011;36794;51.212;6.980;2022-09-01T03:40:44;3.65;;;1.27;;
50821;SDS011;36794;51.212;6.980;2022-09-01T03:43:11;3.03;;;1.38;;
50821;SDS011;36794;51.212;6.980;2022-09-01T03:45:37;5.70;;;1.33;;
50821;SDS011;36794;51.212;6.980;2022-09-01T03:48:04;4.57;;;1.65;;
50821;SDS011;36794;51.212;6.980;2022-09-01T03:50:35;3.55;;;1.20;;
50821;SDS011;36794;51.212;6.980;2022-09-01T03:53:02;3.65;;;1.40;;
50821;SDS011;36794;51.212;6.980;2022-09-01T03:55:29;5.05;;;1.67;;
50821;SDS011;36794;51.212;6.980;2022-09-01T03:57:57;5.05;;;1.40;;
50821;SDS011;36794;51.212;6.980;2022-09-01T04:00:25;3.20;;;1.63;;
50821;SDS011;36794;51.212;6.980;2022-09-01T04:02:54;4.68;;;1.58;;
50821;SDS011;36794;51.212;6.980;2022-09-01T04:05:21;6.50;;;1.53;;
50821;SDS011;36794;51.212;6.980;2022-09-01T04:07:49;4.35;;;1.60;;
50821;SDS011;36794;51.212;6.980;2022-09-01T04:10:15;3.88;;;1.73;;
50821;SDS011;36794;51.212;6.980;2022-09-01T04:12:42;4.07;;;1.60;;
50821;SDS011;36794;51.212;6.980;2022-09-01T04:15:08;3.37;;;1.17;;
50821;SDS011;36794;51.212;6.980;2022-09-01T04:17:34;5.23;;;1.30;;
50821;SDS011;36794;51.212;6.980;2022-09-01T04:20:19;2.88;;;1.40;;
50821;SDS011;36794;51.212;6.980;2022-09-01T04:22:45;5.63;;;1.33;;
50821;SDS011;36794;51.212;6.980;2022-09-01T04:25:30;7.27;;;1.53;;
50821;SDS011;36794;51.212;6.980;2022-09-01T04:27:57;6.27;;;1.60;;
50821;SDS011;36794;51.212;6.980;2022-09-01T04:30:23;6.00;;;1.30;;
50821;SDS011;36794;51.212;6.980;2022-09-01T04:32:53;5.93;;;1.60;;
50821;SDS011;36794;51.212;6.980;2022-09-01T04:35:20;3.77;;;1.40;;
50821;SDS011;36794;51.212;6.980;2022-09-01T04:37:56;6.70;;;1.40;;
50821;SDS011;36794;51.212;6.980;2022-09-01T04:40:22;4.37;;;1.50;;
50821;SDS011;36794;51.212;6.980;2022-09-01T04:42:48;4.00;;;1.30;;
50821;SDS011;36794;51.212;6.980;2022-09-01T04:45:14;7.10;;;1.37;;
50821;SDS011;36794;51.212;6.980;2022-09-01T04:47:41;4.43;;;1.40;;
50821;SDS011;36794;51.212;6.980;2022-09-01T04:50:09;4.90;;;1.50;;
50821;SDS011;36794;51.212;6.980;2022-09-01T04:52:42;5.00;;;1.30;;
50821;SDS011;36794;51.212;6.980;2022-09-01T04:55:09;6.03;;;1.43;;
50821;SDS011;36794;51.212;6.980;2022-09-01T04:57:41;3.73;;;1.40;;
50821;SDS011;36794;51.212;6.980;2022-09-01T05:00:11;7.00;;;1.53;;
50821;SDS011;36794;51.212;6.980;2022-09-01T05:02:46;5.13;;;1.30;;
50821;SDS011;36794;51.212;6.980;2022-09-01T05:05:12;6.37;;;1.80;;
50821;SDS011;36794;51.212;6.980;2022-09-01T05:07:38;4.73;;;1.40;;
50821;SDS011;36794;51.212;6.980;2022-09-01T05:10:04;12.13;;;2.13;;
50821;SDS011;36794;51.212;6.980;2022-09-01T05:12:30;5.30;;;1.53;;
50821;SDS011;36794;51.212;6.980;2022-09-01T05:14:56;6.50;;;1.80;;
50821;SDS011;36794;51.212;6.980;2022-09-01T05:17:22;7.93;;;1.60;;
50821;SDS011;36794;51.212;6.980;2022-09-01T05:19:53;4.50;;;1.50;;
50821;SDS011;36794;51.212;6.980;2022-09-01T05:22:20;6.43;;;1.40;;
50821;SDS011;36794;51.212;6.980;2022-09-01T05:24:46;12.70;;;1.93;;
50821;SDS011;36794;51.212;6.980;2022-09-01T05:27:15;13.43;;;1.70;;
50821;SDS011;36794;51.212;6.980;2022-09-01T05:29:42;6.03;;;1.50;;
50821;SDS011;36794;51.212;6.980;2022-09-01T05:32:11;10.73;;;1.77;;
50821;SDS011;36794;51.212;6.980;2022-09-01T05:34:37;7.83;;;1.50;;
50821;SDS011;36794;51.212;6.980;2022-09-01T05:37:04;10.40;;;3.47;;
50821;SDS011;36794;51.212;6.980;2022-09-01T05:39:31;4.47;;;1.60;;
50821;SDS011;36794;51.212;6.980;2022-09-01T05:41:58;7.33;;;1.40;;
50821;SDS011;36794;51.212;6.980;2022-09-01T05:44:25;4.20;;;1.70;;
50821;SDS011;36794;51.212;6.980;2022-09-01T05:46:51;12.60;;;1.83;;
50821;SDS011;36794;51.212;6.980;2022-09-01T05:49:17;6.07;;;2.13;;
50821;SDS011;36794;51.212;6.980;2022-09-01T05:51:44;5.97;;;1.80;;
50821;SDS011;36794;51.212;6.980;2022-09-01T05:54:13;10.47;;;2.10;;
50821;SDS011;36794;51.212;6.980;2022-09-01T05:56:40;14.23;;;2.60;;
50821;SDS011;36794;51.212;6.980;2022-09-01T05:59:07;6.27;;;1.60;;
50821;SDS011;36794;51.212;6.980;2022-09-01T06:01:34;4.63;;;1.60;;
50821;SDS011;36794;51.212;6.980;2022-09-01T06:04:04;13.30;;;1.87;;
50821;SDS011;36794;51.212;6.980;2022-09-01T06:06:34;9.10;;;1.50;;
50821;SDS011;36794;51.212;6.980;2022-09-01T06:09:02;4.77;;;1.60;;
50821;SDS011;36794;51.212;6.980;2022-09-01T06:11:28;7.37;;;1.53;;
50821;SDS011;36794;51.212;6.980;2022-09-01T06:13:57;5.05;;;1.33;;
50821;SDS011;36794;51.212;6.980;2022-09-01T06:16:24;3.15;;;1.30;;
50821;SDS011;36794;51.212;6.980;2022-09-01T06:18:51;7.95;;;1.48;;
50821;SDS011;36794;51.212;6.980;2022-09-01T06:21:18;12.18;;;1.70;;
50821;SDS011;36794;51.212;6.980;2022-09-01T06:23:45;7.85;;;1.40;;
50821;SDS011;36794;51.212;6.980;2022-09-01T06:26:19;11.02;;;1.88;;
50821;SDS011;36794;51.212;6.980;2022-09-01T06:28:45;9.25;;;1.48;;
50821;SDS011;36794;51.212;6.980;2022-09-01T06:31:12;4.85;;;1.40;;
50821;SDS011;36794;51.212;6.980;2022-09-01T06:33:39;5.15;;;1.50;;
50821;SDS011;36794;51.212;6.980;2022-09-01T06:36:06;5.05;;;1.40;;
50821;SDS011;36794;51.212;6.980;2022-09-01T06:38:33;9.45;;;1.50;;
50821;SDS011;36794;51.212;6.980;2022-09-01T06:41:01;5.22;;;1.58;;
50821;SDS011;36794;51.212;6.980;2022-09-01T06:43:28;6.28;;;1.50;;
50821;SDS011;36794;51.212;6.980;2022-09-01T06:45:54;9.25;;;1.60;;
50821;SDS011;36794;51.212;6.980;2022-09-01T06:48:21;6.05;;;1.65;;
50821;SDS011;36794;51.212;6.980;2022-09-01T06:50:47;2.33;;;1.20;;
50821;SDS011;36794;51.212;6.980;2022-09-01T06:53:14;4.88;;;1.15;;
50821;SDS011;36794;51.212;6.980;2022-09-01T06:55:42;6.65;;;1.45;;
50821;SDS011;36794;51.212;6.980;2022-09-01T06:58:11;4.13;;;1.30;;
50821;SDS011;36794;51.212;6.980;2022-09-01T07:00:40;8.63;;;0.90;;
50821;SDS011;36794;51.212;6.980;2022-09-01T07:03:07;3.63;;;1.30;;
50821;SDS011;36794;51.212;6.980;2022-09-01T07:05:33;2.10;;;1.27;;
50821;SDS011;36794;51.212;6.980;2022-09-01T07:08:01;4.53;;;1.15;;
50821;SDS011;36794;51.212;6.980;2022-09-01T07:10:31;6.78;;;1.40;;
50821;SDS011;36794;51.212;6.980;2022-09-01T07:12:57;3.78;;;1.00;;
50821;SDS011;36794;51.212;6.980;2022-09-01T07:15:24;2.83;;;1.00;;
50821;SDS011;36794;51.212;6.980;2022-09-01T07:17:52;8.27;;;1.30;;
50821;SDS011;36794;51.212;6.980;2022-09-01T07:20:20;4.32;;;1.10;;
50821;SDS011;36794;51.212;6.980;2022-09-01T07:22:46;3.97;;;1.13;;
50821;SDS011;36794;51.212;6.980;2022-09-01T07:25:13;4.40;;;0.90;;
50821;SDS011;36794;51.212;6.980;2022-09-01T07:27:39;2.95;;;1.23;;
50821;SDS011;36794;51.212;6.980;2022-09-01T07:30:09;3.10;;;1.00;;
50821;SDS011;36794;51.212;6.980;2022-09-01T07:32:36;6.63;;;1.40;;
50821;SDS011;36794;51.212;6.980;2022-09-01T07:35:04;3.15;;;1.17;;
50821;SDS011;36794;51.212;6.980;2022-09-01T07:37:32;1.83;;;0.93;;
50821;SDS011;36794;51.212;6.980;2022-09-01T07:40:02;2.97;;;1.38;;
50821;SDS011;36794;51.212;6.980;2022-09-01T07:42:30;7.50;;;1.23;;
50821;SDS011;36794;51.212;6.980;2022-09-01T07:44:56;4.80;;;1.02;;
50821;SDS011;36794;51.212;6.980;2022-09-01T07:47:22;3.53;;;1.13;;
50821;SDS011;36794;51.212;6.980;2022-09-01T07:49:48;3.65;;;0.95;;
50821;SDS011;36794;51.212;6.980;2022-09-01T07:52:14;6.00;;;1.40;;
50821;SDS011;36794;51.212;6.980;2022-09-01T07:54:41;2.13;;;0.80;;
50821;SDS011;36794;51.212;6.980;2022-09-01T07:57:07;1.75;;;0.90;;
50821;SDS011;36794;51.212;6.980;2022-09-01T07:59:33;7.20;;;1.08;;
50821;SDS011;36794;51.212;6.980;2022-09-01T08:02:00;4.20;;;1.00;;
50821;SDS011;36794;51.212;6.980;2022-09-01T08:04:29;2.15;;;0.82;;
50821;SDS011;36794;51.212;6.980;2022-09-01T08:06:55;6.25;;;1.10;;
50821;SDS011;36794;51.212;6.980;2022-09-01T08:09:21;7.47;;;1.10;;
50821;SDS011;36794;51.212;6.980;2022-09-01T08:11:47;5.75;;;1.10;;
50821;SDS011;36794;51.212;6.980;2022-09-01T08:14:14;2.28;;;0.70;;
50821;SDS011;36794;51.212;6.980;2022-09-01T08:16:40;3.20;;;1.05;;
50821;SDS011;36794;51.212;6.980;2022-09-01T08:19:06;2.08;;;0.63;;
50821;SDS011;36794;51.212;6.980;2022-09-01T08:21:32;3.58;;;0.75;;
50821;SDS011;36794;51.212;6.980;2022-09-01T08:23:58;3.92;;;0.77;;
50821;SDS011;36794;51.212;6.980;2022-09-01T08:26:24;3.20;;;1.10;;
50821;SDS011;36794;51.212;6.980;2022-09-01T08:28:50;2.28;;;0.63;;
50821;SDS011;36794;51.212;6.980;2022-09-01T08:31:18;3.78;;;0.70;;
50821;SDS011;36794;51.212;6.980;2022-09-01T08:33:45;3.53;;;0.93;;
50821;SDS011;36794;51.212;6.980;2022-09-01T08:36:11;2.55;;;0.57;;
50821;SDS011;36794;51.212;6.980;2022-09-01T08:38:38;3.25;;;0.70;;
50821;SDS011;36794;51.212;6.980;2022-09-01T08:41:05;1.02;;;0.50;;
50821;SDS011;36794;51.212;6.980;2022-09-01T08:46:36;9.57;;;0.50;;
50821;SDS011;36794;51.212;6.980;2022-09-01T08:49:07;0.63;;;0.40;;
50821;SDS011;36794;51.212;6.980;2022-09-01T08:54:22;4.20;;;0.50;;
50821;SDS011;36794;51.212;6.980;2022-09-01T08:57:00;2.38;;;0.30;;
50821;SDS011;36794;51.212;6.980;2022-09-01T08:59:26;3.65;;;0.40;;
50821;SDS011;36794;51.212;6.980;2022-09-01T09:07:09;1.02;;;0.30;;
50821;SDS011;36794;51.212;6.980;2022-09-01T09:10:02;1.88;;;0.68;;
50821;SDS011;36794;51.212;6.980;2022-09-01T09:12:30;2.30;;;0.35;;
50821;SDS011;36794;51.212;6.980;2022-09-01T09:17:40;3.08;;;0.65;;
50821;SDS011;36794;51.212;6.980;2022-09-01T09:20:08;1.42;;;0.60;;
50821;SDS011;36794;51.212;6.980;2022-09-01T09:22:34;4.03;;;0.57;;
50821;SDS011;36794;51.212;6.980;2022-09-01T09:25:03;2.08;;;0.52;;
50821;SDS011;36794;51.212;6.980;2022-09-01T09:27:41;4.25;;;0.80;;
50821;SDS011;36794;51.212;6.980;2022-09-01T09:32:51;2.75;;;0.63;;
50821;SDS011;36794;51.212;6.980;2022-09-01T09:35:19;2.05;;;0.60;;
50821;SDS011;36794;51.212;6.980;2022-09-01T09:37:46;3.90;;;0.60;;
50821;SDS011;36794;51.212;6.980;2022-09-01T09:40:13;1.98;;;0.57;;
50821;SDS011;36794;51.212;6.980;2022-09-01T09:45:23;3.13;;;0.65;;
50821;SDS011;36794;51.212;6.980;2022-09-01T09:47:50;1.25;;;0.50;;
50821;SDS011;36794;51.212;6.980;2022-09-01T09:50:22;2.35;;;0.70;;
50821;SDS011;36794;51.212;6.980;2022-09-01T09:52:49;2.00;;;0.45;;
50821;SDS011;36794;51.212;6.980;2022-09-01T09:57:48;6.18;;;0.50;;
50821;SDS011;36794;51.212;6.980;2022-09-01T10:00:18;0.60;;;0.50;;
50821;SDS011;36794;51.212;6.980;2022-09-01T10:02:45;4.43;;;0.45;;
50821;SDS011;36794;51.212;6.980;2022-09-01T10:08:01;1.75;;;0.60;;
50821;SDS011;36794;51.212;6.980;2022-09-01T10:13:02;5.57;;;0.60;;
50821;SDS011;36794;51.212;6.980;2022-09-01T10:15:31;1.77;;;0.60;;
50821;SDS011;36794;51.212;6.980;2022-09-01T10:18:00;2.60;;;0.60;;
50821;SDS011;36794;51.212;6.980;2022-09-01T10:20:26;1.10;;;0.50;;
50821;SDS011;36794;51.212;6.980;2022-09-01T10:22:53;2.97;;;0.50;;
50821;SDS011;36794;51.212;6.980;2022-09-01T10:25:20;3.20;;;0.50;;
50821;SDS011;36794;51.212;6.980;2022-09-01T10:27:57;2.22;;;0.50;;
50821;SDS011;36794;51.212;6.980;2022-09-01T10:30:24;2.30;;;0.60;;
50821;SDS011;36794;51.212;6.980;2022-09-01T10:32:52;3.20;;;0.55;;
50821;SDS011;36794;51.212;6.980;2022-09-01T10:35:21;1.27;;;0.60;;
50821;SDS011;36794;51.212;6.980;2022-09-01T10:37:48;1.13;;;0.40;;
50821;SDS011;36794;51.212;6.980;2022-09-01T10:42:55;3.90;;;0.60;;
50821;SDS011;36794;51.212;6.980;2022-09-01T10:45:29;3.05;;;0.50;;
50821;SDS011;36794;51.212;6.980;2022-09-01T10:50:24;3.60;;;0.50;;
50821;SDS011;36794;51.212;6.980;2022-09-01T10:52:51;3.25;;;0.60;;
50821;SDS011;36794;51.212;6.980;2022-09-01T10:55:18;2.25;;;0.70;;
50821;SDS011;36794;51.212;6.980;2022-09-01T11:08:23;1.88;;;0.50;;
50821;SDS011;36794;51.212;6.980;2022-09-01T11:10:51;1.35;;;0.52;;
50821;SDS011;36794;51.212;6.980;2022-09-01T11:13:29;1.10;;;0.50;;
50821;SDS011;36794;51.212;6.980;2022-09-01T11:16:03;3.85;;;0.65;;
50821;SDS011;36794;51.212;6.980;2022-09-01T11:18:42;4.03;;;0.63;;
50821;SDS011;36794;51.212;6.980;2022-09-01T11:21:15;2.55;;;0.50;;
50821;SDS011;36794;51.212;6.980;2022-09-01T11:23:42;2.35;;;0.60;;
50821;SDS011;36794;51.212;6.980;2022-09-01T11:28:54;1.75;;;0.80;;
50821;SDS011;36794;51.212;6.980;2022-09-01T11:31:25;1.63;;;0.50;;
50821;SDS011;36794;51.212;6.980;2022-09-01T11:33:58;2.85;;;0.60;;
50821;SDS011;36794;51.212;6.980;2022-09-01T11:36:34;2.13;;;0.52;;
50821;SDS011;36794;51.212;6.980;2022-09-01T11:39:34;1.52;;;0.63;;
50821;SDS011;36794;51.212;6.980;2022-09-01T11:41:58;6.60;;;0.63;;
50821;SDS011;36794;51.212;6.980;2022-09-01T11:44:48;4.03;;;0.90;;
50821;SDS011;36794;51.212;6.980;2022-09-01T11:47:21;3.08;;;0.60;;
50821;SDS011;36794;51.212;6.980;2022-09-01T11:49:57;2.05;;;0.82;;
50821;SDS011;36794;51.212;6.980;2022-09-01T11:52:25;1.85;;;0.60;;
50821;SDS011;36794;51.212;6.980;2022-09-01T11:54:51;1.23;;;0.80;;
50821;SDS011;36794;51.212;6.980;2022-09-01T11:57:26;2.78;;;0.52;;
50821;SDS011;36794;51.212;6.980;2022-09-01T11:59:54;3.75;;;0.90;;
50821;SDS011;36794;51.212;6.980;2022-09-01T12:02:25;2.35;;;0.73;;
50821;SDS011;36794;51.212;6.980;2022-09-01T12:04:52;3.60;;;0.63;;
50821;SDS011;36794;51.212;6.980;2022-09-01T12:07:26;2.33;;;1.00;;
50821;SDS011;36794;51.212;6.980;2022-09-01T12:09:54;2.70;;;0.90;;
50821;SDS011;36794;51.212;6.980;2022-09-01T12:12:33;4.10;;;0.43;;
50821;SDS011;36794;51.212;6.980;2022-09-01T12:15:17;1.85;;;0.50;;
50821;SDS011;36794;51.212;6.980;2022-09-01T12:17:43;1.90;;;0.50;;
50821;SDS011;36794;51.212;6.980;2022-09-01T12:20:29;1.52;;;0.50;;
50821;SDS011;36794;51.212;6.980;2022-09-01T12:22:56;1.33;;;0.60;;
50821;SDS011;36794;51.212;6.980;2022-09-01T12:25:24;0.65;;;0.50;;
50821;SDS011;36794;51.212;6.980;2022-09-01T12:27:50;2.03;;;0.60;;
50821;SDS011;36794;51.212;6.980;2022-09-01T12:30:17;4.57;;;0.63;;
50821;SDS011;36794;51.212;6.980;2022-09-01T12:32:43;2.70;;;0.90;;
50821;SDS011;36794;51.212;6.980;2022-09-01T12:35:19;2.13;;;0.52;;
50821;SDS011;36794;51.212;6.980;2022-09-01T12:37:46;2.40;;;0.80;;
50821;SDS011;36794;51.212;6.980;2022-09-01T12:40:32;3.03;;;0.77;;
50821;SDS011;36794;51.212;6.980;2022-09-01T12:42:58;2.25;;;0.60;;
50821;SDS011;36794;51.212;6.980;2022-09-01T12:45:43;1.20;;;0.70;;
50821;SDS011;36794;51.212;6.980;2022-09-01T12:48:27;3.25;;;0.80;;
50821;SDS011;36794;51.212;6.980;2022-09-01T12:50:54;4.60;;;0.70;;
50821;SDS011;36794;51.212;6.980;2022-09-01T12:53:21;1.55;;;0.68;;
50821;SDS011;36794;51.212;6.980;2022-09-01T12:55:54;2.20;;;1.02;;
50821;SDS011;36794;51.212;6.980;2022-09-01T12:58:22;2.88;;;0.80;;
50821;SDS011;36794;51.212;6.980;2022-09-01T13:00:54;2.40;;;0.60;;
50821;SDS011;36794;51.212;6.980;2022-09-01T13:03:20;1.25;;;0.85;;
50821;SDS011;36794;51.212;6.980;2022-09-01T13:05:50;7.13;;;0.80;;
50821;SDS011;36794;51.212;6.980;2022-09-01T13:08:21;2.25;;;0.60;;
50821;SDS011;36794;51.212;6.980;2022-09-01T13:10:57;2.85;;;0.82;;
50821;SDS011;36794;51.212;6.980;2022-09-01T13:13:25;1.77;;;0.80;;
50821;SDS011;36794;51.212;6.980;2022-09-01T13:15:52;1.13;;;0.60;;
50821;SDS011;36794;51.212;6.980;2022-09-01T13:18:22;2.72;;;1.00;;
50821;SDS011;36794;51.212;6.980;2022-09-01T13:20:50;1.40;;;0.60;;
50821;SDS011;36794;51.212;6.980;2022-09-01T13:23:17;4.53;;;0.77;;
50821;SDS011;36794;51.212;6.980;2022-09-01T13:25:43;1.25;;;0.68;;
50821;SDS011;36794;51.212;6.980;2022-09-01T13:28:10;3.25;;;0.90;;
50821;SDS011;36794;51.212;6.980;2022-09-01T13:30:36;2.15;;;1.00;;
50821;SDS011;36794;51.212;6.980;2022-09-01T13:33:02;1.65;;;0.70;;
50821;SDS011;36794;51.212;6.980;2022-09-01T13:35:28;5.07;;;1.10;;
50821;SDS011;36794;51.212;6.980;2022-09-01T13:37:54;4.60;;;0.90;;
50821;SDS011;36794;51.212;6.980;2022-09-01T13:40:21;4.35;;;1.15;;
50821;SDS011;36794;51.212;6.980;2022-09-01T13:42:48;1.75;;;0.82;;
50821;SDS011;36794;51.212;6.980;2022-09-01T13:45:15;1.33;;;0.70;;
50821;SDS011;36794;51.212;6.980;2022-09-01T13:47:43;1.88;;;0.73;;
50821;SDS011;36794;51.212;6.980;2022-09-01T13:50:09;3.70;;;0.85;;
50821;SDS011;36794;51.212;6.980;2022-09-01T13:52:38;5.30;;;1.23;;
50821;SDS011;36794;51.212;6.980;2022-09-01T13:55:04;2.70;;;0.80;;
50821;SDS011;36794;51.212;6.980;2022-09-01T13:57:31;0.68;;;0.50;;
50821;SDS011;36794;51.212;6.980;2022-09-01T13:59:58;2.03;;;0.90;;
50821;SDS011;36794;51.212;6.980;2022-09-01T14:02:24;3.15;;;0.82;;
50821;SDS011;36794;51.212;6.980;2022-09-01T14:04:51;4.60;;;0.63;;
50821;SDS011;36794;51.212;6.980;2022-09-01T14:07:17;2.90;;;0.77;;
50821;SDS011;36794;51.212;6.980;2022-09-01T14:09:44;2.47;;;0.88;;
50821;SDS011;36794;51.212;6.980;2022-09-01T14:12:10;2.08;;;0.90;;
50821;SDS011;36794;51.212;6.980;2022-09-01T14:14:36;7.03;;;0.93;;
50821;SDS011;36794;51.212;6.980;2022-09-01T14:17:02;3.03;;;0.80;;
50821;SDS011;36794;51.212;6.980;2022-09-01T14:19:28;3.17;;;0.63;;
50821;SDS011;36794;51.212;6.980;2022-09-01T14:21:56;2.35;;;0.70;;
50821;SDS011;36794;51.212;6.980;2022-09-01T14:24:28;2.88;;;0.80;;
50821;SDS011;36794;51.212;6.980;2022-09-01T14:26:54;1.70;;;0.90;;
50821;SDS011;36794;51.212;6.980;2022-09-01T14:29:20;6.82;;;0.80;;
50821;SDS011;36794;51.212;6.980;2022-09-01T14:31:46;0.85;;;0.70;;
50821;SDS011;36794;51.212;6.980;2022-09-01T14:34:14;3.15;;;0.88;;
50821;SDS011;36794;51.212;6.980;2022-09-01T14:36:43;3.97;;;0.80;;
50821;SDS011;36794;51.212;6.980;2022-09-01T14:39:09;2.00;;;0.90;;
50821;SDS011;36794;51.212;6.980;2022-09-01T14:41:35;2.85;;;0.73;;
50821;SDS011;36794;51.212;6.980;2022-09-01T14:44:01;7.38;;;0.80;;
50821;SDS011;36794;51.212;6.980;2022-09-01T14:46:28;1.15;;;0.80;;
50821;SDS011;36794;51.212;6.980;2022-09-01T14:48:54;1.85;;;0.88;;
50821;SDS011;36794;51.212;6.980;2022-09-01T14:51:22;2.70;;;0.70;;
50821;SDS011;36794;51.212;6.980;2022-09-01T14:53:48;1.48;;;0.80;;
50821;SDS011;36794;51.212;6.980;2022-09-01T14:56:14;1.95;;;0.73;;
50821;SDS011;36794;51.212;6.980;2022-09-01T14:58:42;1.70;;;0.65;;
50821;SDS011;36794;51.212;6.980;2022-09-01T15:01:10;3.72;;;1.00;;
50821;SDS011;36794;51.212;6.980;2022-09-01T15:03:36;3.83;;;0.70;;
50821;SDS011;36794;51.212;6.980;2022-09-01T15:06:02;4.68;;;0.90;;
50821;SDS011;36794;51.212;6.980;2022-09-01T15:08:28;2.05;;;1.00;;
50821;SDS011;36794;51.212;6.980;2022-09-01T15:10:54;2.55;;;1.05;;
50821;SDS011;36794;51.212;6.980;2022-09-01T15:13:20;3.63;;;1.17;;
50821;SDS011;36794;51.212;6.980;2022-09-01T15:15:46;2.08;;;0.80;;
50821;SDS011;36794;51.212;6.980;2022-09-01T15:18:12;1.52;;;0.88;;
50821;SDS011;36794;51.212;6.980;2022-09-01T15:20:39;2.25;;;1.00;;
50821;SDS011;36794;51.212;6.980;2022-09-01T15:23:16;7.63;;;0.90;;
50821;SDS011;36794;51.212;6.980;2022-09-01T15:25:42;5.70;;;0.90;;
50821;SDS011;36794;51.212;6.980;2022-09-01T15:28:08;5.03;;;0.80;;
50821;SDS011;36794;51.212;6.980;2022-09-01T15:30:35;1.92;;;0.90;;
50821;SDS011;36794;51.212;6.980;2022-09-01T15:33:01;2.40;;;0.75;;
50821;SDS011;36794;51.212;6.980;2022-09-01T15:35:30;1.60;;;0.80;;
50821;SDS011;36794;51.212;6.980;2022-09-01T15:37:56;2.00;;;1.00;;
50821;SDS011;36794;51.212;6.980;2022-09-01T15:40:22;4.10;;;0.90;;
50821;SDS011;36794;51.212;6.980;2022-09-01T15:42:48;2.22;;;0.75;;
50821;SDS011;36794;51.212;6.980;2022-09-01T15:45:16;3.13;;;1.00;;